Time;durP1;ratioP1;P1;durP2;ratioP2;P2;SDS_P1;SDS_P2;PMS_P1;PMS_P2;Temp;Humidity;BMP_temperature;BMP_pressure;BME280_temperature;BME280_humidity;BME280_pressure;Samples;Min_cycle;Max_cycle;Signal;HPM_P1;HPM_P2
2021/09/08 00:01:01;;;;;;;22.70;12.50;;;15.60;99.90;;;;;;4965297;28;20323;-82
2021/09/08 00:03:27;;;;;;;17.20;10.60;;;15.50;99.90;;;;;;4965309;28;20225;-82
2021/09/08 00:05:54;;;;;;;19.43;10.73;;;15.40;99.90;;;;;;4965448;28;20228;-82
2021/09/08 00:08:20;;;;;;;20.87;11.23;;;15.30;99.90;;;;;;4982134;28;20267;-84
2021/09/08 00:10:46;;;;;;;26.53;9.83;;;15.20;99.90;;;;;;4964833;28;20217;-82
2021/09/08 00:13:12;;;;;;;19.03;11.03;;;15.10;99.90;;;;;;4966170;28;20233;-82
2021/09/08 00:15:38;;;;;;;21.07;10.87;;;15.10;99.90;;;;;;4980947;28;21198;-82
2021/09/08 00:18:04;;;;;;;17.97;11.10;;;15.10;99.90;;;;;;4941203;28;20774;-81
2021/09/08 00:20:29;;;;;;;17.10;11.10;;;15.10;99.90;;;;;;4966229;28;20977;-83
2021/09/08 00:22:55;;;;;;;23.00;11.70;;;15.10;99.90;;;;;;4965957;28;20225;-84
2021/09/08 00:25:21;;;;;;;17.10;11.43;;;15.00;99.90;;;;;;4965044;28;20259;-84
2021/09/08 00:27:47;;;;;;;17.53;10.43;;;15.00;99.90;;;;;;4964650;28;20829;-83
2021/09/08 00:30:13;;;;;;;22.37;11.73;;;15.00;99.90;;;;;;4965085;28;20220;-82
2021/09/08 00:32:39;;;;;;;23.60;11.20;;;15.00;99.90;;;;;;4964801;28;20200;-82
2021/09/08 00:35:06;;;;;;;18.27;10.50;;;15.00;99.90;;;;;;4966086;28;20204;-82
2021/09/08 00:37:31;;;;;;;20.13;10.63;;;15.10;99.90;;;;;;4964908;28;20224;-83
2021/09/08 00:39:57;;;;;;;21.23;12.10;;;15.10;99.90;;;;;;4965158;28;21185;-82
2021/09/08 00:42:23;;;;;;;20.07;11.43;;;15.10;99.90;;;;;;4964636;28;20232;-81
2021/09/08 00:44:49;;;;;;;15.00;9.97;;;15.10;99.90;;;;;;4964533;28;21039;-81
2021/09/08 00:47:16;;;;;;;18.70;11.57;;;15.10;99.90;;;;;;4965260;28;20193;-81
2021/09/08 00:49:44;;;;;;;19.07;11.00;;;15.00;99.90;;;;;;4980724;28;20248;-84
2021/09/08 00:52:12;;;;;;;20.53;10.77;;;15.00;99.90;;;;;;4980779;28;20215;-83
2021/09/08 00:54:38;;;;;;;19.43;11.73;;;15.00;99.90;;;;;;4964353;28;20228;-82
2021/09/08 00:57:07;;;;;;;21.07;11.87;;;14.90;99.90;;;;;;4964172;28;20716;-81
2021/09/08 00:59:34;;;;;;;20.40;12.00;;;14.80;99.90;;;;;;4965434;28;20195;-84
2021/09/08 01:02:01;;;;;;;22.17;11.80;;;14.80;99.90;;;;;;4981074;28;20242;-84
2021/09/08 01:04:27;;;;;;;22.60;12.40;;;14.70;99.90;;;;;;4965092;28;20327;-81
2021/09/08 01:06:57;;;;;;;19.43;11.47;;;14.70;99.90;;;;;;4964721;28;20232;-83
2021/09/08 01:09:23;;;;;;;20.73;11.77;;;14.70;99.90;;;;;;4964567;28;20239;-82
2021/09/08 01:11:49;;;;;;;20.97;10.63;;;14.70;99.90;;;;;;4964227;28;20244;-81
2021/09/08 01:14:14;;;;;;;21.93;12.33;;;14.70;99.90;;;;;;4964847;28;21091;-84
2021/09/08 01:16:40;;;;;;;21.13;12.10;;;14.70;99.90;;;;;;4964606;28;20267;-82
2021/09/08 01:19:06;;;;;;;22.07;11.37;;;14.80;99.90;;;;;;4979579;28;20562;-83
2021/09/08 01:21:31;;;;;;;16.73;11.20;;;14.80;99.90;;;;;;4963638;28;20224;-81
2021/09/08 01:24:07;;;;;;;20.57;12.00;;;14.70;99.90;;;;;;4963976;28;20634;-82
2021/09/08 01:26:42;;;;;;;20.37;10.87;;;14.80;99.90;;;;;;4979993;28;20193;-82
2021/09/08 01:29:09;;;;;;;16.97;10.57;;;14.70;99.90;;;;;;4963345;28;20199;-81
2021/09/08 01:31:35;;;;;;;18.13;11.83;;;14.70;99.90;;;;;;4961993;28;20232;-83
2021/09/08 01:34:02;;;;;;;17.87;10.17;;;14.70;99.90;;;;;;4963044;28;20232;-82
2021/09/08 01:36:27;;;;;;;18.10;12.10;;;14.60;99.90;;;;;;4962707;28;20228;-82
2021/09/08 01:38:53;;;;;;;16.83;11.30;;;14.60;99.90;;;;;;4962277;28;20224;-83
2021/09/08 01:41:19;;;;;;;16.47;11.30;;;14.60;99.90;;;;;;4963002;28;20193;-82
2021/09/08 01:43:46;;;;;;;22.60;11.03;;;14.60;99.90;;;;;;4962250;28;20244;-82
2021/09/08 01:46:22;;;;;;;18.57;11.20;;;14.60;99.90;;;;;;4964076;28;21018;-84
2021/09/08 01:48:48;;;;;;;18.60;10.73;;;14.50;99.90;;;;;;4963987;28;20251;-81
2021/09/08 01:51:14;;;;;;;19.47;11.30;;;14.50;99.90;;;;;;4964912;28;20281;-81
2021/09/08 01:53:41;;;;;;;16.97;10.70;;;14.40;99.90;;;;;;4963703;28;20195;-81
2021/09/08 01:56:07;;;;;;;19.90;11.43;;;14.40;99.90;;;;;;4963178;28;20188;-82
2021/09/08 01:58:33;;;;;;;14.70;9.63;;;14.40;99.90;;;;;;4961870;28;20255;-82
2021/09/08 02:00:59;;;;;;;17.67;9.80;;;14.40;99.90;;;;;;4964375;28;20658;-81
2021/09/08 02:03:25;;;;;;;19.00;10.40;;;14.40;99.90;;;;;;4979525;28;20237;-81
2021/09/08 02:05:50;;;;;;;20.23;11.27;;;14.50;99.90;;;;;;4963169;28;20694;-82
2021/09/08 02:08:16;;;;;;;18.90;10.90;;;14.50;99.90;;;;;;4964149;28;20196;-81
2021/09/08 02:10:42;;;;;;;18.03;10.17;;;14.60;99.90;;;;;;4963230;28;20245;-81
2021/09/08 02:13:08;;;;;;;18.77;10.73;;;14.70;99.90;;;;;;4979709;28;21054;-82
2021/09/08 02:15:34;;;;;;;16.27;9.80;;;14.70;99.90;;;;;;4963278;28;20686;-81
2021/09/08 02:18:00;;;;;;;20.43;11.47;;;14.80;99.90;;;;;;4979354;28;20290;-82
2021/09/08 02:20:25;;;;;;;16.27;9.73;;;14.80;99.90;;;;;;4964016;28;20705;-82
2021/09/08 02:22:51;;;;;;;21.43;10.57;;;14.70;99.90;;;;;;4979853;28;20236;-83
2021/09/08 02:25:17;;;;;;;16.43;10.57;;;14.70;99.90;;;;;;4948212;28;20228;-82
2021/09/08 02:27:43;;;;;;;15.13;9.50;;;14.70;99.90;;;;;;4979380;28;20228;-82
2021/09/08 02:30:09;;;;;;;15.73;9.20;;;14.70;99.90;;;;;;4963535;28;20236;-82
2021/09/08 02:32:35;;;;;;;17.80;10.97;;;14.70;99.90;;;;;;4963478;28;20236;-82
2021/09/08 02:35:01;;;;;;;18.63;9.83;;;14.80;99.90;;;;;;4968019;28;20189;-82
2021/09/08 02:37:28;;;;;;;18.33;11.37;;;14.80;99.90;;;;;;4982799;28;20247;-82
2021/09/08 02:39:53;;;;;;;22.40;9.80;;;14.80;99.90;;;;;;4983319;28;20278;-82
2021/09/08 02:42:19;;;;;;;17.13;9.67;;;14.70;99.90;;;;;;4982496;28;20800;-82
2021/09/08 02:44:46;;;;;;;16.43;10.77;;;14.70;99.90;;;;;;4983005;28;20287;-81
2021/09/08 02:47:12;;;;;;;17.93;9.33;;;14.70;99.90;;;;;;4960275;28;20276;-81
2021/09/08 02:49:38;;;;;;;13.53;9.07;;;14.70;99.90;;;;;;4967029;28;20294;-82
2021/09/08 02:52:04;;;;;;;18.73;9.83;;;14.60;99.90;;;;;;4967657;28;20698;-82
2021/09/08 02:54:30;;;;;;;13.53;9.17;;;14.60;99.90;;;;;;4982988;28;20224;-82
2021/09/08 02:56:55;;;;;;;15.07;9.50;;;14.50;99.90;;;;;;4966608;28;20282;-81
2021/09/08 02:59:21;;;;;;;15.80;9.67;;;14.50;99.90;;;;;;4967242;28;20238;-82
2021/09/08 03:01:47;;;;;;;18.53;9.60;;;14.40;99.90;;;;;;4983037;28;20220;-83
2021/09/08 03:04:13;;;;;;;17.90;9.57;;;14.50;99.90;;;;;;4966793;28;20733;-82
2021/09/08 03:06:38;;;;;;;18.53;10.63;;;14.50;99.90;;;;;;4966863;28;20223;-84
2021/09/08 03:09:04;;;;;;;15.20;10.40;;;14.60;99.90;;;;;;4966259;28;20217;-82
2021/09/08 03:11:30;;;;;;;16.70;8.60;;;14.60;99.90;;;;;;4966207;28;20272;-82
2021/09/08 03:13:56;;;;;;;20.33;9.07;;;14.60;99.90;;;;;;4966772;28;20243;-82
2021/09/08 03:16:22;;;;;;;15.13;10.20;;;14.50;99.90;;;;;;4966294;28;20231;-82
2021/09/08 03:18:47;;;;;;;12.90;8.60;;;14.50;99.90;;;;;;4966967;28;20231;-82
2021/09/08 03:21:13;;;;;;;18.67;8.53;;;14.50;99.90;;;;;;4966203;28;20657;-83
2021/09/08 03:23:39;;;;;;;14.90;9.53;;;14.50;99.90;;;;;;4981958;28;20677;-84
2021/09/08 03:26:04;;;;;;;14.77;8.73;;;14.40;99.90;;;;;;4966558;28;20193;-82
2021/09/08 03:28:30;;;;;;;17.80;9.57;;;14.40;99.90;;;;;;4966638;28;20249;-83
2021/09/08 03:30:56;;;;;;;19.40;9.50;;;14.30;99.90;;;;;;4965856;28;20973;-82
2021/09/08 03:33:22;;;;;;;17.47;10.30;;;14.30;99.90;;;;;;4966007;28;20653;-84
2021/09/08 03:35:48;;;;;;;16.40;8.87;;;14.20;99.90;;;;;;4965962;28;20216;-81
2021/09/08 03:38:13;;;;;;;14.90;10.40;;;14.10;99.90;;;;;;4966792;28;20197;-83
2021/09/08 03:40:39;;;;;;;15.30;9.43;;;14.00;99.90;;;;;;4965830;28;20286;-82
2021/09/08 03:43:05;;;;;;;14.57;9.13;;;14.00;99.90;;;;;;4966207;28;20614;-81
2021/09/08 03:45:31;;;;;;;16.40;10.23;;;14.00;99.90;;;;;;4965873;28;20278;-82
2021/09/08 03:47:57;;;;;;;18.50;9.73;;;14.00;99.90;;;;;;4965701;28;20327;-82
2021/09/08 03:50:22;;;;;;;15.00;9.40;;;14.00;99.90;;;;;;4982044;28;20228;-82
2021/09/08 03:52:50;;;;;;;15.27;9.53;;;14.00;99.90;;;;;;4966351;28;20714;-82
2021/09/08 03:55:16;;;;;;;15.33;9.77;;;14.00;99.90;;;;;;4965647;28;20702;-81
2021/09/08 03:57:41;;;;;;;17.53;10.07;;;14.00;99.90;;;;;;4965005;28;20255;-81
2021/09/08 04:00:08;;;;;;;15.50;9.43;;;14.00;99.90;;;;;;4965229;28;20224;-82
2021/09/08 04:02:35;;;;;;;17.13;11.30;;;14.10;99.90;;;;;;4965302;28;20209;-82
2021/09/08 04:05:01;;;;;;;19.33;9.73;;;14.10;99.90;;;;;;4967252;28;20267;-83
2021/09/08 04:07:27;;;;;;;21.47;10.67;;;14.20;99.90;;;;;;4981663;28;20240;-84
2021/09/08 04:09:53;;;;;;;19.13;10.63;;;14.20;99.90;;;;;;4965809;28;20548;-82
2021/09/08 04:12:19;;;;;;;19.00;9.83;;;14.20;99.90;;;;;;4965253;28;20252;-82
2021/09/08 04:14:45;;;;;;;15.50;10.07;;;14.20;99.90;;;;;;4964574;28;20690;-82
2021/09/08 04:17:10;;;;;;;19.43;10.20;;;14.20;99.90;;;;;;4965419;28;20200;-82
2021/09/08 04:19:36;;;;;;;16.33;9.37;;;14.20;99.90;;;;;;4964916;28;20225;-81
2021/09/08 04:22:02;;;;;;;17.70;9.77;;;14.10;99.90;;;;;;4960311;28;20335;-82
2021/09/08 04:24:28;;;;;;;14.33;10.33;;;14.10;99.90;;;;;;4960451;28;20259;-83
2021/09/08 04:26:54;;;;;;;17.47;9.83;;;14.00;99.90;;;;;;4960244;28;20303;-82
2021/09/08 04:29:19;;;;;;;19.83;10.33;;;14.00;99.90;;;;;;4963058;28;20199;-82
2021/09/08 04:31:45;;;;;;;14.37;8.33;;;13.90;99.90;;;;;;4980022;28;20690;-83
2021/09/08 04:34:11;;;;;;;17.43;10.40;;;13.90;99.90;;;;;;4964508;28;20240;-83
2021/09/08 04:36:37;;;;;;;17.10;9.47;;;13.80;99.90;;;;;;4964685;28;20284;-82
2021/09/08 04:39:03;;;;;;;17.77;10.60;;;13.80;99.90;;;;;;4964783;28;20271;-82
2021/09/08 04:41:29;;;;;;;16.93;10.03;;;13.80;99.90;;;;;;4980769;28;20195;-82
2021/09/08 04:43:55;;;;;;;15.03;7.97;;;13.80;99.90;;;;;;4965444;28;20236;-84
2021/09/08 04:46:21;;;;;;;17.03;9.03;;;13.70;99.90;;;;;;4964536;28;20228;-83
2021/09/08 04:48:47;;;;;;;17.80;8.47;;;13.70;99.90;;;;;;4964833;28;20275;-82
2021/09/08 04:51:12;;;;;;;15.97;9.07;;;13.60;99.90;;;;;;4980673;28;20622;-82
2021/09/08 04:53:38;;;;;;;12.90;8.23;;;13.60;99.90;;;;;;4973992;28;20617;-82
2021/09/08 04:56:04;;;;;;;12.43;8.07;;;13.60;99.90;;;;;;4963986;28;20671;-82
2021/09/08 04:58:30;;;;;;;20.77;10.10;;;13.60;99.90;;;;;;4981002;28;20290;-82
2021/09/08 05:00:56;;;;;;;15.83;8.60;;;13.60;99.90;;;;;;4965083;28;20238;-81
2021/09/08 05:03:22;;;;;;;15.37;9.37;;;13.60;99.90;;;;;;4972756;28;21111;-83
2021/09/08 05:05:47;;;;;;;16.70;8.83;;;13.70;99.90;;;;;;4964649;28;20263;-81
2021/09/08 05:08:13;;;;;;;23.00;11.17;;;13.70;99.90;;;;;;4980919;28;20595;-84
2021/09/08 05:10:39;;;;;;;15.23;9.10;;;13.80;99.90;;;;;;4964644;28;20647;-83
2021/09/08 05:13:05;;;;;;;19.40;10.13;;;13.80;99.90;;;;;;4964471;28;20217;-81
2021/09/08 05:15:31;;;;;;;14.73;9.83;;;14.00;99.90;;;;;;4963614;28;20235;-82
2021/09/08 05:17:56;;;;;;;19.10;10.40;;;14.20;99.90;;;;;;4964994;28;20224;-82
2021/09/08 05:20:22;;;;;;;19.40;9.53;;;14.30;99.90;;;;;;4964941;28;20993;-85
2021/09/08 05:22:48;;;;;;;17.83;9.13;;;14.50;99.90;;;;;;4949193;28;20228;-82
2021/09/08 05:25:13;;;;;;;20.07;10.63;;;14.50;99.90;;;;;;4964566;28;20236;-82
2021/09/08 05:27:39;;;;;;;19.80;10.73;;;14.50;99.90;;;;;;4964293;28;20243;-83
2021/09/08 05:30:08;;;;;;;25.10;10.13;;;14.50;99.90;;;;;;4979586;28;20224;-82
2021/09/08 05:32:33;;;;;;;19.47;11.17;;;14.50;99.90;;;;;;4980327;28;20199;-82
2021/09/08 05:34:59;;;;;;;17.87;9.27;;;14.60;99.90;;;;;;4964580;28;20960;-83
2021/09/08 05:37:25;;;;;;;18.07;11.07;;;14.60;99.90;;;;;;4964957;28;20777;-83
2021/09/08 05:39:51;;;;;;;15.13;9.60;;;14.50;99.90;;;;;;4964315;28;20905;-83
2021/09/08 05:42:17;;;;;;;18.83;10.10;;;14.60;99.90;;;;;;4979756;28;20229;-82
2021/09/08 05:44:42;;;;;;;16.90;10.40;;;14.60;99.90;;;;;;4964286;28;20314;-83
2021/09/08 05:47:08;;;;;;;16.03;8.33;;;14.60;99.90;;;;;;4964796;28;20299;-83
2021/09/08 05:49:34;;;;;;;18.00;10.47;;;14.70;99.90;;;;;;4948901;28;20240;-81
2021/09/08 05:52:00;;;;;;;18.60;9.80;;;15.00;99.90;;;;;;4980167;28;20216;-83
2021/09/08 05:54:25;;;;;;;17.00;10.20;;;15.70;99.90;;;;;;4964417;28;20760;-84
2021/09/08 05:56:51;;;;;;;19.20;10.23;;;17.30;99.90;;;;;;4963988;28;20236;-84
2021/09/08 05:59:17;;;;;;;13.20;8.70;;;19.30;99.90;;;;;;4964314;28;20817;-83
2021/09/08 06:01:43;;;;;;;16.47;8.83;;;21.20;99.90;;;;;;4963878;28;20304;-82
2021/09/08 06:04:08;;;;;;;12.47;8.10;;;22.40;99.90;;;;;;4979782;28;20235;-83
2021/09/08 06:06:34;;;;;;;15.17;9.00;;;23.70;99.90;;;;;;4979987;28;20208;-83
2021/09/08 06:09:00;;;;;;;14.70;9.60;;;24.30;99.90;;;;;;4965224;28;20239;-83
2021/09/08 06:11:26;;;;;;;11.60;8.47;;;24.00;99.90;;;;;;4951324;28;20223;-87
2021/09/08 06:13:53;;;;;;;14.30;8.77;;;24.00;99.90;;;;;;4938096;28;20200;-89
2021/09/08 06:16:21;;;;;;;15.43;8.97;;;24.80;99.90;;;;;;4968543;28;20212;-89
2021/09/08 06:18:47;;;;;;;15.67;9.97;;;25.60;99.90;;;;;;4985327;28;20224;-88
2021/09/08 06:21:12;;;;;;;13.70;9.17;;;24.80;99.90;;;;;;4969503;28;20263;-89
2021/09/08 06:23:38;;;;;;;16.60;9.20;;;23.10;99.90;;;;;;4968918;28;20274;-88
2021/09/08 06:26:04;;;;;;;14.33;9.10;;;21.70;99.90;;;;;;4986411;28;20223;-90
2021/09/08 06:28:30;;;;;;;15.67;9.00;;;20.30;99.90;;;;;;4968668;28;20225;-90
2021/09/08 06:30:56;;;;;;;15.67;9.53;;;19.40;99.90;;;;;;4969129;28;20247;-89
2021/09/08 06:33:22;;;;;;;16.13;9.53;;;18.80;99.90;;;;;;4984799;28;20232;-89
2021/09/08 06:35:49;;;;;;;18.93;9.87;;;18.20;99.90;;;;;;4985216;28;20263;-86
2021/09/08 06:38:15;;;;;;;15.47;9.70;;;17.60;99.90;;;;;;4969466;28;20847;-89
2021/09/08 06:40:41;;;;;;;19.87;9.73;;;17.60;99.90;;;;;;4986202;28;20255;-89
2021/09/08 06:43:07;;;;;;;17.57;9.13;;;17.70;99.90;;;;;;4984205;28;21122;-88
2021/09/08 06:45:33;;;;;;;19.33;10.33;;;17.50;99.90;;;;;;4968779;28;20225;-89
2021/09/08 06:47:59;;;;;;;17.17;10.80;;;18.30;99.90;;;;;;4969372;28;20686;-90
2021/09/08 06:50:25;;;;;;;19.53;9.43;;;19.80;99.90;;;;;;4984133;28;20189;-88
2021/09/08 06:52:51;;;;;;;15.37;9.43;;;21.20;99.90;;;;;;4968926;28;20242;-86
2021/09/08 06:55:17;;;;;;;13.27;8.37;;;21.70;99.90;;;;;;4968062;28;20686;-87
2021/09/08 06:57:43;;;;;;;13.47;8.30;;;22.00;99.90;;;;;;4967764;28;20216;-87
2021/09/08 07:00:09;;;;;;;17.80;9.80;;;22.30;99.90;;;;;;4968145;28;20244;-88
2021/09/08 07:02:35;;;;;;;13.93;9.00;;;23.20;99.90;;;;;;4967623;28;20646;-88
2021/09/08 07:05:01;;;;;;;14.27;9.07;;;23.90;99.90;;;;;;4969236;28;20197;-88
2021/09/08 07:07:27;;;;;;;14.82;9.18;;;24.50;99.90;;;;;;4967479;28;20704;-87
2021/09/08 07:09:53;;;;;;;15.30;9.60;;;25.50;99.90;;;;;;4968498;28;20952;-88
2021/09/08 07:12:19;;;;;;;15.82;9.18;;;26.00;99.90;;;;;;4966684;28;20226;-88
2021/09/08 07:14:44;;;;;;;13.27;7.38;;;24.70;99.90;;;;;;4965801;28;20580;-86
2021/09/08 07:17:10;;;;;;;12.63;8.55;;;23.50;99.90;;;;;;4966455;28;20243;-88
2021/09/08 07:19:36;;;;;;;15.07;8.77;;;22.60;99.90;;;;;;4966537;28;20284;-90
2021/09/08 07:22:02;;;;;;;11.18;7.70;;;22.80;99.90;;;;;;4967126;28;20216;-88
2021/09/08 07:24:28;;;;;;;13.50;8.55;;;22.40;99.90;;;;;;4965856;28;20678;-88
2021/09/08 07:26:57;;;;;;;12.55;7.55;;;22.10;99.90;;;;;;4966461;28;20239;-90
2021/09/08 07:29:24;;;;;;;13.65;7.20;;;22.10;99.90;;;;;;4982783;28;20200;-85
2021/09/08 07:31:49;;;;;;;16.33;8.98;;;22.20;99.90;;;;;;4982834;28;20260;-86
2021/09/08 07:34:15;;;;;;;11.30;7.88;;;22.80;99.90;;;;;;4965339;28;20228;-86
2021/09/08 07:36:41;;;;;;;13.52;7.82;;;23.10;99.90;;;;;;4965516;28;20761;-84
2021/09/08 07:39:07;;;;;;;11.60;7.38;;;23.50;99.90;;;;;;4966597;28;20538;-87
2021/09/08 07:41:33;;;;;;;13.80;8.18;;;22.80;99.90;;;;;;4965228;28;20193;-85
2021/09/08 07:43:59;;;;;;;11.98;7.90;;;22.40;99.90;;;;;;4981632;28;20327;-86
2021/09/08 07:46:25;;;;;;;11.68;7.78;;;22.30;99.90;;;;;;4964211;28;20698;-89
2021/09/08 07:48:51;;;;;;;12.40;8.68;;;22.70;99.90;;;;;;4965275;28;20208;-86
2021/09/08 07:51:17;;;;;;;14.93;8.63;;;22.70;99.90;;;;;;4965198;28;20225;-84
2021/09/08 07:53:42;;;;;;;12.13;8.02;;;23.10;99.90;;;;;;4965405;28;20712;-85
2021/09/08 07:56:08;;;;;;;11.98;7.82;;;22.70;99.90;;;;;;4965912;28;20189;-85
2021/09/08 07:58:34;;;;;;;10.85;7.38;;;22.50;99.90;;;;;;4964534;28;20714;-87
2021/09/08 08:01:00;;;;;;;10.77;7.32;;;22.70;99.90;;;;;;4964302;28;20225;-85
2021/09/08 08:03:26;;;;;;;9.13;7.57;;;22.60;99.90;;;;;;4964589;28;20584;-85
2021/09/08 08:05:52;;;;;;;11.65;7.75;;;22.20;99.90;;;;;;4964618;28;20220;-84
2021/09/08 08:08:18;;;;;;;13.55;7.63;;;22.70;99.90;;;;;;4981878;28;20197;-88
2021/09/08 08:10:45;;;;;;;12.27;7.40;;;23.00;99.90;;;;;;4964650;28;20220;-88
2021/09/08 08:13:10;;;;;;;9.85;6.53;;;23.00;99.90;;;;;;4964877;28;20827;-86
2021/09/08 08:15:36;;;;;;;10.95;7.43;;;22.50;99.90;;;;;;4964606;28;20212;-91
2021/09/08 08:18:02;;;;;;;10.07;6.88;;;22.80;99.90;;;;;;4964760;28;20293;-88
2021/09/08 08:20:28;;;;;;;9.93;7.00;;;23.10;99.90;;;;;;4980969;28;20193;-92
2021/09/08 08:22:55;;;;;;;10.93;7.45;;;23.30;99.90;;;;;;4965753;28;20332;-87
2021/09/08 08:25:27;;;;;;;14.95;8.02;;;23.50;99.90;;;;;;4964785;28;20221;-88
2021/09/08 08:27:55;;;;;;;11.73;7.38;;;23.30;99.90;;;;;;4965170;28;20831;-90
2021/09/08 08:30:21;;;;;;;12.05;6.70;;;23.70;99.90;;;;;;4965232;28;20252;-89
2021/09/08 08:32:47;;;;;;;12.02;6.63;;;24.30;99.90;;;;;;4964352;28;20433;-86
2021/09/08 08:35:14;;;;;;;9.02;5.97;;;24.30;99.90;;;;;;4966190;28;20213;-88
2021/09/08 08:37:39;;;;;;;16.15;7.13;;;24.50;99.90;;;;;;4964023;28;20216;-88
2021/09/08 08:40:07;;;;;;;11.75;6.88;;;24.40;99.90;;;;;;4981142;28;20969;-88
2021/09/08 08:42:33;;;;;;;10.73;7.05;;;24.60;99.90;;;;;;4980619;28;20232;-86
2021/09/08 08:44:59;;;;;;;9.80;6.50;;;24.70;99.90;;;;;;4964355;28;20295;-87
2021/09/08 08:47:26;;;;;;;8.30;6.40;;;24.20;99.90;;;;;;4981756;28;20467;-88
2021/09/08 08:49:55;;;;;;;9.30;6.32;;;24.50;99.90;;;;;;4982475;28;20201;-90
2021/09/08 08:52:21;;;;;;;10.77;6.80;;;24.50;99.90;;;;;;4964566;28;20266;-87
2021/09/08 08:54:47;;;;;;;9.90;6.43;;;24.90;99.90;;;;;;4980428;28;20379;-86
2021/09/08 08:57:15;;;;;;;10.77;6.32;;;24.40;99.90;;;;;;4965997;28;20224;-88
2021/09/08 08:59:42;;;;;;;9.02;6.15;;;24.10;99.90;;;;;;4964794;28;20189;-88
2021/09/08 09:02:29;;;;;;;10.60;6.13;;;24.50;99.90;;;;;;4980815;28;20188;-89
2021/09/08 09:04:58;;;;;;;9.35;6.00;;;25.80;99.90;;;;;;4965011;28;20248;-88
2021/09/08 09:07:30;;;;;;;8.85;5.85;;;25.70;99.90;;;;;;4981037;28;20616;-89
2021/09/08 09:09:58;;;;;;;9.90;6.18;;;25.40;99.90;;;;;;4980441;28;20230;-89
2021/09/08 09:12:26;;;;;;;8.77;5.75;;;25.20;99.90;;;;;;4980449;28;20223;-88
2021/09/08 09:14:57;;;;;;;7.63;5.70;;;25.30;99.90;;;;;;4964715;28;20283;-89
2021/09/08 09:17:25;;;;;;;9.32;6.00;;;25.00;99.90;;;;;;4964391;28;20201;-90
2021/09/08 09:19:50;;;;;;;11.00;5.65;;;24.90;99.90;;;;;;4981050;28;20280;-88
2021/09/08 09:22:24;;;;;;;8.68;4.70;;;24.90;99.90;;;;;;4965659;28;20311;-89
2021/09/08 09:24:53;;;;;;;7.88;4.63;;;24.60;99.90;;;;;;4965184;28;20244;-89
2021/09/08 09:27:19;;;;;;;7.95;5.18;;;24.70;99.90;;;;;;4964453;28;20824;-89
2021/09/08 09:29:45;;;;;;;7.93;4.53;;;24.70;99.90;;;;;;4964012;28;20662;-90
2021/09/08 09:32:12;;;;;;;10.23;4.97;;;25.10;99.90;;;;;;4964993;28;20185;-87
2021/09/08 09:34:41;;;;;;;9.75;4.97;;;25.20;99.90;;;;;;4963705;28;20256;-89
2021/09/08 09:37:08;;;;;;;6.88;4.68;;;25.20;99.90;;;;;;4977233;28;20228;-86
2021/09/08 09:39:37;;;;;;;8.43;4.38;;;25.00;99.90;;;;;;4962199;28;20204;-86
2021/09/08 09:42:11;;;;;;;6.15;3.90;;;24.80;99.90;;;;;;4964247;28;20245;-88
2021/09/08 09:44:37;;;;;;;6.20;4.57;;;24.90;99.90;;;;;;4965267;28;20223;-87
2021/09/08 09:47:04;;;;;;;7.32;4.55;;;24.90;99.90;;;;;;4982106;28;20199;-90
2021/09/08 09:49:33;;;;;;;5.78;4.28;;;24.80;99.90;;;;;;4963353;28;20559;-88
2021/09/08 09:51:59;;;;;;;6.55;3.85;;;24.90;99.90;;;;;;4980912;28;20223;-89
2021/09/08 09:54:26;;;;;;;6.32;4.13;;;25.30;99.90;;;;;;4980650;28;20236;-89
2021/09/08 09:56:55;;;;;;;5.50;3.83;;;25.10;99.90;;;;;;4965888;28;20303;-88
2021/09/08 09:59:21;;;;;;;5.43;4.05;;;24.90;99.90;;;;;;4984767;28;20507;-90
2021/09/08 10:01:47;;;;;;;6.68;4.00;;;25.10;99.90;;;;;;4987746;28;20233;-88
2021/09/08 10:04:14;;;;;;;7.00;3.78;;;25.20;99.90;;;;;;4972882;28;20228;-90
2021/09/08 10:06:40;;;;;;;4.90;3.80;;;25.20;99.90;;;;;;4967215;28;20216;-90
2021/09/08 10:09:09;;;;;;;10.00;4.22;;;25.00;99.90;;;;;;4962009;28;20217;-90
2021/09/08 10:11:44;;;;;;;6.13;4.13;;;25.20;99.90;;;;;;4962405;28;20189;-87
2021/09/08 10:14:36;;;;;;;6.88;4.32;;;24.70;99.90;;;;;;4978674;28;20222;-88
2021/09/08 10:17:03;;;;;;;7.35;4.40;;;25.00;99.90;;;;;;4962300;28;20240;-87
2021/09/08 10:19:30;;;;;;;8.57;4.68;;;25.20;99.90;;;;;;4961782;28;20212;-87
2021/09/08 10:22:08;;;;;;;6.38;4.25;;;25.40;99.90;;;;;;4962373;28;20217;-90
2021/09/08 10:24:35;;;;;;;6.28;3.83;;;25.50;99.90;;;;;;4963340;28;20224;-91
2021/09/08 10:27:18;;;;;;;6.90;4.47;;;25.60;99.90;;;;;;4964176;28;20219;-89
2021/09/08 10:29:50;;;;;;;11.50;5.10;;;24.90;99.90;;;;;;4980049;28;20231;-89
2021/09/08 10:32:17;;;;;;;5.20;3.95;;;24.90;99.90;;;;;;4965301;28;20191;-88
2021/09/08 10:34:44;;;;;;;6.95;4.55;;;25.20;99.90;;;;;;4964348;28;20217;-92
2021/09/08 10:37:11;;;;;;;10.43;5.35;;;25.30;99.90;;;;;;4964570;28;20220;-87
2021/09/08 10:39:39;;;;;;;8.65;4.70;;;25.40;99.90;;;;;;4980461;28;20279;-86
2021/09/08 10:42:05;;;;;;;9.07;4.38;;;25.60;99.90;;;;;;4982107;28;20212;-89
2021/09/08 10:44:46;;;;;;;9.13;4.28;;;25.50;99.90;;;;;;4965964;28;20601;-87
2021/09/08 10:47:13;;;;;;;5.38;3.95;;;25.40;99.90;;;;;;4983043;28;20215;-88
2021/09/08 10:49:39;;;;;;;8.75;4.63;;;25.20;99.90;;;;;;4981920;28;20217;-87
2021/09/08 10:52:10;;;;;;;10.63;5.05;;;25.20;99.90;;;;;;4962421;28;20840;-87
2021/09/08 10:54:54;;;;;;;6.40;4.13;;;25.40;99.90;;;;;;4962567;28;22352;-91
2021/09/08 10:57:44;;;;;;;5.18;4.18;;;25.30;99.90;;;;;;4982093;28;20247;-93
2021/09/08 11:00:12;;;;;;;5.95;4.40;;;25.30;99.90;;;;;;4966581;28;20222;-92
2021/09/08 11:02:44;;;;;;;8.05;5.22;;;25.20;99.90;;;;;;4967341;28;20359;-89
2021/09/08 11:05:11;;;;;;;5.85;4.22;;;25.70;99.90;;;;;;4970108;28;20196;-91
2021/09/08 11:07:42;;;;;;;7.15;4.25;;;25.20;99.90;;;;;;4967552;28;20278;-89
2021/09/08 11:10:10;;;;;;;5.68;3.90;;;25.40;99.90;;;;;;4967583;28;20228;-93
2021/09/08 11:12:46;;;;;;;5.22;4.50;;;25.20;99.90;;;;;;4982686;28;20220;-89
2021/09/08 11:15:12;;;;;;;7.20;4.68;;;25.20;99.90;;;;;;4982399;28;20247;-90
2021/09/08 11:17:39;;;;;;;7.18;4.78;;;25.20;99.90;;;;;;4965308;28;20252;-91
2021/09/08 11:20:06;;;;;;;7.38;5.07;;;25.20;99.90;;;;;;4965888;28;20281;-93
2021/09/08 11:22:32;;;;;;;6.13;4.25;;;25.40;99.90;;;;;;4980607;28;20342;-90
2021/09/08 11:25:09;;;;;;;9.55;5.55;;;25.30;99.90;;;;;;4982010;28;20299;-90
2021/09/08 11:27:37;;;;;;;9.35;5.07;;;25.60;99.90;;;;;;4950978;28;20558;-90
2021/09/08 11:30:08;;;;;;;6.75;4.88;;;25.30;99.90;;;;;;4966508;28;20226;-89
2021/09/08 11:32:57;;;;;;;7.68;4.82;;;25.20;99.90;;;;;;4967809;28;20181;-91
2021/09/08 11:35:48;;;;;;;5.20;4.22;;;25.40;99.90;;;;;;4983120;28;20192;-92
2021/09/08 11:38:19;;;;;;;6.95;3.70;;;25.50;99.90;;;;;;4967850;28;20677;-90
2021/09/08 11:40:48;;;;;;;6.45;4.15;;;25.80;99.90;;;;;;4983174;28;20204;-92
2021/09/08 11:43:28;;;;;;;6.35;3.92;;;25.70;99.90;;;;;;4968307;28;20243;-90
2021/09/08 11:45:54;;;;;;;6.28;3.70;;;25.50;99.90;;;;;;4967091;28;20216;-94
2021/09/08 11:48:30;;;;;;;6.93;3.67;;;25.40;99.90;;;;;;4983738;28;20459;-91
2021/09/08 11:51:05;;;;;;;5.03;3.63;;;25.20;99.90;;;;;;4967307;28;20216;-91
2021/09/08 11:53:31;;;;;;;4.60;3.15;;;24.90;99.90;;;;;;4967622;28;20231;-92
2021/09/08 11:56:08;;;;;;;5.45;3.50;;;25.00;99.90;;;;;;4967989;28;20216;-91
2021/09/08 11:58:34;;;;;;;5.47;3.75;;;25.20;99.90;;;;;;4982855;28;20220;-90
2021/09/08 12:01:04;;;;;;;6.00;3.38;;;25.30;99.90;;;;;;4967516;28;20225;-92
2021/09/08 12:03:31;;;;;;;6.47;3.65;;;25.20;99.90;;;;;;4967814;28;20958;-90
2021/09/08 12:06:07;;;;;;;5.97;3.95;;;25.30;99.90;;;;;;4966428;28;20216;-90
2021/09/08 12:08:33;;;;;;;6.57;4.13;;;25.40;99.90;;;;;;4966598;28;20192;-89
2021/09/08 12:10:59;;;;;;;4.68;3.30;;;25.30;99.90;;;;;;4967774;28;20193;-92
2021/09/08 12:13:33;;;;;;;5.93;4.20;;;25.10;99.90;;;;;;4966715;28;20232;-90
2021/09/08 12:16:00;;;;;;;8.65;3.90;;;25.10;99.90;;;;;;4982779;28;20220;-89
2021/09/08 12:18:26;;;;;;;6.50;3.70;;;25.10;99.90;;;;;;4982556;28;20223;-90
2021/09/08 12:20:52;;;;;;;8.13;4.43;;;25.10;99.90;;;;;;4966877;28;20608;-90
2021/09/08 12:23:29;;;;;;;5.30;3.33;;;25.10;99.90;;;;;;4966922;28;20225;-90
2021/09/08 12:26:13;;;;;;;3.92;3.22;;;25.20;99.90;;;;;;4966411;28;20211;-89
2021/09/08 12:29:06;;;;;;;6.35;3.45;;;25.20;99.90;;;;;;4966237;28;20212;-90
2021/09/08 12:32:05;;;;;;;6.70;3.72;;;24.90;99.90;;;;;;4964797;28;20693;-91
2021/09/08 12:34:51;;;;;;;7.25;3.67;;;25.10;99.90;;;;;;4981880;28;20729;-88
2021/09/08 12:37:18;;;;;;;3.65;2.85;;;25.10;99.90;;;;;;4965008;28;20225;-86